Ent AFB, Colorado
Current Conditions -  °F | °C
As of 2:54 AM on Sunday 25 Jan 2015 (Local Time) from KCOS Reporting Station
Clear Clear  
Wind Chill: 36°   Ceiling: Unl
Heat Index: 36°   Visibility: 10mi
Dew Point: 23°   Wind: 0mph
Humidity: 59%   Direction: NA
Pressure: 30.14"   Gusts: NA
Location:  38.8334°N, 104.82°W
Report Text: KCOS 250954Z 00000KT 10SM CLR 02/M05 A3014 RMK AO2 SLP190 T00221050 $
Loading
Personal Weather Stations






























Interactive Weather Map New forecast layout! Learn more

10-Day Weather Forecast

Advertisements
Track Severe Weather on mobile